This is the latest recevied weather packets stored in our database for station/object K7SPS-10. If no packets are shown the sender has not sent any weather packets the latest 10 day(s).
| Time | Temp. | Humidity | Pressure | Rain* | Wind** | Luminosity | Snow |
|---|---|---|---|---|---|---|---|
| 1777562336 | 10.56° C | 62% | 1023 hPa | 0 mm | - | 258 W/m² | - |
| 1777562032 | 10° C | 64% | 1023 hPa | 0 mm | - | 109 W/m² | - |
| 1777561729 | 10° C | 67% | 1022.9 hPa | 0 mm | - | 131 W/m² | - |
| 1777561425 | 9.44° C | 67% | 1023.1 hPa | 0 mm | - | 65 W/m² | - |
| 1777561120 | 9.44° C | 67% | 1023 hPa | 0 mm | - | 74 W/m² | - |
| 1777560815 | 10° C | 66% | 1023.2 hPa | 0 mm | - | 68 W/m² | - |
| 1777560513 | 10° C | 66% | 1023 hPa | 0 mm | - | 74 W/m² | - |
| 1777560211 | 10° C | 65% | 1022.9 hPa | 0 mm | - | 96 W/m² | - |
| 1777559907 | 9.44° C | 68% | 1023.1 hPa | 0 mm | - | 124 W/m² | - |
| 1777559602 | 8.89° C | 69% | 1023.1 hPa | 0 mm | - | 58 W/m² | - |
| 1777559301 | 8.33° C | 71% | 1022.8 hPa | 0 mm | - | 106 W/m² | - |
| 1777558996 | 8.33° C | 73% | 1022.8 hPa | 0 mm | - | 76 W/m² | - |
| 1777558692 | 9.44° C | 69% | 1022.9 hPa | 0 mm | - | 140 W/m² | - |
| 1777558389 | 8.89° C | 71% | 1022.8 hPa | 0 mm | - | 137 W/m² | - |
| 1777558084 | 8.89° C | 70% | 1022.6 hPa | 0 mm | - | 122 W/m² | - |
| 1777557781 | 8.33° C | 73% | 1022.6 hPa | 0 mm | - | 106 W/m² | - |
| 1777557478 | 7.78° C | 73% | 1022.6 hPa | 0 mm | - | 96 W/m² | - |
| 1777557174 | 7.22° C | 73% | 1022.4 hPa | 0 mm | - | 86 W/m² | - |
| 1777556870 | 7.22° C | 73% | 1022.3 hPa | 0 mm | - | 76 W/m² | - |
| 1777556566 | 6.67° C | 75% | 1022.4 hPa | 0 mm | - | 66 W/m² | - |
| 1777556266 | 6.11° C | 77% | 1022.4 hPa | 0 mm | - | 61 W/m² | - |
| 1777555962 | 5.56° C | 79% | 1022.5 hPa | 0 mm | - | 52 W/m² | - |
| 1777555657 | 5° C | 81% | 1022.2 hPa | 0 mm | - | 43 W/m² | - |
| 1777555354 | 4.44° C | 82% | 1022.2 hPa | 0 mm | - | 35 W/m² | - |
| 1777555051 | 3.89° C | 84% | 1022.1 hPa | 0 mm | - | 23 W/m² | - |
* Rain latest hour (hover to see other rain measurements)
** Current wind speed in m/s (hover to see current wind gust speed)